Airfield :
LOGIN :

Register | Disclaimer

   EN    FR    IT 

 










Legend :    VFR   Marginal VFR   IFR   Intensive IFR   Very Intensive IFR
Visi :
Ceiling :
>= 8 km
>= 3000ft
5 to 8 km
1000 to 3000 ft
1500m to 5 km
500 to 1000 ft
800 to 1500m
200 to 500 ft
< 800m
< 200 ft
Symbols :   Thunderstorms  Fog  Heavy snow  Heavy precipitations  Wind > 20 kt
SIGMETs :     Misc.  Thunderstorms  Icing  Turbulence  Mountain Waves  Volcanic Ashes







- Airport Elevation : 1682 ft
- IATA code : VIT


LEVT - Vitoria Gasteiz

CURRENT METAR :
  • 220730Z 00000KT 5000 BR BKN060 10/08 Q1004

EXPIRED METARs :
  • 220700Z 00000KT 5000 BR SCT070 10/08 Q1004
  • 220630Z 00000KT 5000 BR NSC 09/08 Q1005
  • 220600Z VRB01KT 4000 BR NSC 09/08 Q1005
  • 220530Z 32002KT 4000 BR NSC 08/07 Q1005
  • 220500Z 00000KT 4000 BR SCT060 08/07 Q1005

TAF TAF LEVT
Valid from the 22 at 06:00 until the 23 at 06:00 UTC


220500Z 2206/2306 VRB03KT 9999 SCT060 TX19/2215Z TN06/2206Z
TEMPO 2206/2208 3000 BR BKN012
PROB40
TEMPO 2206/2208 0350 FG VV001
BECMG 2208/2212 20010KT
No reported NOTAMs for that airfield.
1 SIGMET reported for the Madrid FIR (LECM) :
 
Severe turbulence
LECM SIGMET 1 VALID 220400/220800 LEVA
LECM MADRID FIR/UIR SEV TURB FCST W OF LINE N3944 W00703 - N3551 W00513 FL240/280 STNR WKN=



MET'MAP, your aeronautical weather chart ! - Copyright ORBIFLY December 2007 - Disclaimer

ORBIFLY MET'MAP TEAM :

Programming & Development : Alexandra Zaïnal
Concept & Development : Baudouin d'Aumeries
Co-Development & Prog : Marc-Olivier Méhu
Technical & hardware support : Manuel Goepfert

Contact : metmap@orbifly.com




SOURCES & CREDITS :

   NOAA